createdAt,value
2022-09-15T00:01:05.196Z,10.98
2022-09-15T00:03:32.127Z,11.32
2022-09-15T00:05:58.943Z,11.24
2022-09-15T00:08:25.853Z,11.19
2022-09-15T00:11:04.710Z,11.20
2022-09-15T00:13:32.138Z,11.23
2022-09-15T00:15:58.919Z,11.28
2022-09-15T00:18:25.818Z,11.21
2022-09-15T00:20:52.749Z,11.24
2022-09-15T00:23:19.572Z,11.31
2022-09-15T00:25:52.697Z,11.31
2022-09-15T00:28:21.614Z,11.26
2022-09-15T00:30:51.817Z,11.29
2022-09-15T00:33:28.083Z,11.15
2022-09-15T00:35:55.097Z,11.37
2022-09-15T00:38:21.914Z,11.27
2022-09-15T00:40:54.708Z,11.24
2022-09-15T00:43:42.332Z,11.41
2022-09-15T00:46:10.119Z,11.36
2022-09-15T00:48:43.678Z,11.36
2022-09-15T00:51:13.837Z,11.44
2022-09-15T00:53:41.834Z,11.44
2022-09-15T00:56:11.530Z,11.39
2022-09-15T00:58:43.283Z,11.46
2022-09-15T01:01:31.315Z,11.51
2022-09-15T01:03:58.659Z,11.40
2022-09-15T01:06:45.679Z,11.35
2022-09-15T01:09:34.972Z,11.43
2022-09-15T01:12:02.717Z,11.45
2022-09-15T01:14:45.136Z,11.49
2022-09-15T01:17:14.992Z,11.51
2022-09-15T01:19:56.891Z,11.48
2022-09-15T01:22:51.912Z,11.57
2022-09-15T01:26:04.760Z,11.36
2022-09-15T01:29:16.237Z,11.49
2022-09-15T01:32:09.729Z,11.58
2022-09-15T01:34:44.634Z,11.51
2022-09-15T01:37:20.395Z,11.25
2022-09-15T01:39:52.773Z,11.34
2022-09-15T01:42:23.274Z,11.43
2022-09-15T01:44:58.153Z,11.42
2022-09-15T01:47:29.116Z,11.41
2022-09-15T01:50:03.267Z,11.24
2022-09-15T01:52:30.923Z,11.35
2022-09-15T01:55:02.380Z,11.31
2022-09-15T01:57:29.431Z,11.39
2022-09-15T01:59:56.826Z,11.35
2022-09-15T02:02:35.754Z,11.34
2022-09-15T02:05:10.299Z,11.32
2022-09-15T02:07:53.247Z,11.30
2022-09-15T02:11:14.185Z,11.33
2022-09-15T02:14:07.076Z,11.35
2022-09-15T02:16:35.928Z,11.37
2022-09-15T02:19:14.763Z,11.37
2022-09-15T02:21:53.966Z,11.45
2022-09-15T02:24:26.683Z,11.43
2022-09-15T02:26:54.268Z,11.37
2022-09-15T02:29:23.920Z,11.36
2022-09-15T02:31:54.116Z,11.56
2022-09-15T02:34:34.694Z,11.37
2022-09-15T02:37:03.288Z,11.43
2022-09-15T02:39:34.375Z,11.41
2022-09-15T02:42:02.313Z,11.44
2022-09-15T02:44:30.673Z,11.38
2022-09-15T02:47:01.511Z,11.31
2022-09-15T02:49:28.516Z,11.26
2022-09-15T02:51:55.667Z,11.26
2022-09-15T02:54:22.578Z,11.21
2022-09-15T02:56:49.311Z,11.15
2022-09-15T02:59:16.104Z,11.25
2022-09-15T03:01:42.945Z,11.22
2022-09-15T03:04:09.784Z,11.23
2022-09-15T03:06:36.579Z,11.14
2022-09-15T03:09:08.100Z,11.34
2022-09-15T03:11:36.189Z,11.38
2022-09-15T03:14:05.634Z,11.36
2022-09-15T03:16:34.762Z,11.40
2022-09-15T03:19:02.151Z,11.37
2022-09-15T03:21:30.621Z,11.38
2022-09-15T03:24:00.547Z,11.49
2022-09-15T03:26:41.963Z,11.43
2022-09-15T03:29:08.821Z,11.50
2022-09-15T03:31:35.652Z,11.51
2022-09-15T03:34:02.532Z,11.52
2022-09-15T03:36:29.565Z,11.44
2022-09-15T03:38:57.637Z,11.40
2022-09-15T03:41:25.689Z,11.51
2022-09-15T03:43:52.528Z,11.46
2022-09-15T03:46:19.506Z,11.46
2022-09-15T03:48:46.640Z,11.52
2022-09-15T03:51:14.423Z,11.54
2022-09-15T03:53:42.499Z,11.58
2022-09-15T03:56:11.413Z,11.63
2022-09-15T03:58:38.456Z,11.64
2022-09-15T04:01:08.334Z,11.62
2022-09-15T04:03:38.794Z,11.54
2022-09-15T04:06:10.365Z,11.67
2022-09-15T04:08:37.623Z,11.49
2022-09-15T04:11:09.895Z,11.72
2022-09-15T04:13:38.902Z,11.53
2022-09-15T04:16:08.862Z,11.74
2022-09-15T04:18:36.162Z,11.80
2022-09-15T04:21:13.822Z,11.78
2022-09-15T04:23:41.721Z,11.88
2022-09-15T04:26:17.287Z,11.85
2022-09-15T04:28:44.262Z,11.73
2022-09-15T04:31:16.093Z,11.80
2022-09-15T04:33:44.134Z,11.83
2022-09-15T04:36:16.941Z,11.63
2022-09-15T04:38:44.577Z,11.74
2022-09-15T04:41:12.458Z,11.69
2022-09-15T04:43:39.381Z,11.71
2022-09-15T04:46:06.892Z,11.61
2022-09-15T04:48:33.817Z,11.68
2022-09-15T04:51:02.120Z,11.81
2022-09-15T04:53:29.426Z,11.78
2022-09-15T04:56:10.074Z,11.80
2022-09-15T04:58:39.073Z,11.81
2022-09-15T05:01:17.858Z,11.98
2022-09-15T05:03:45.669Z,11.98
2022-09-15T05:06:15.834Z,11.97
2022-09-15T05:08:43.224Z,11.96
2022-09-15T05:11:12.139Z,11.92
2022-09-15T05:13:40.047Z,12.04
2022-09-15T05:16:08.892Z,12.06
2022-09-15T05:18:39.822Z,12.08
2022-09-15T05:21:08.295Z,12.13
2022-09-15T05:23:36.763Z,12.13
2022-09-15T05:26:06.879Z,12.27
2022-09-15T05:28:35.549Z,12.24
2022-09-15T05:31:07.172Z,12.23
2022-09-15T05:33:34.991Z,12.30
2022-09-15T05:36:02.053Z,12.26
2022-09-15T05:38:32.956Z,12.34
2022-09-15T05:41:08.145Z,12.32
2022-09-15T05:43:36.864Z,12.27
2022-09-15T05:46:04.649Z,12.23
2022-09-15T05:48:31.548Z,12.19
2022-09-15T05:50:58.457Z,12.28
2022-09-15T05:53:26.321Z,12.35
2022-09-15T05:55:57.827Z,12.50
2022-09-15T05:58:25.769Z,12.53
2022-09-15T06:00:53.770Z,12.82
2022-09-15T06:03:22.449Z,12.79
2022-09-15T06:05:58.475Z,12.76
2022-09-15T06:08:29.989Z,12.70
2022-09-15T06:11:19.848Z,12.91
2022-09-15T06:13:47.304Z,12.86
2022-09-15T06:16:16.802Z,12.97
2022-09-15T06:18:43.685Z,12.91
2022-09-15T06:21:17.150Z,12.97
2022-09-15T06:23:49.915Z,12.98
2022-09-15T06:26:19.311Z,13.00
2022-09-15T06:29:07.746Z,12.93
2022-09-15T06:31:35.068Z,13.04
2022-09-15T06:34:02.244Z,12.82
2022-09-15T06:36:48.747Z,12.74
2022-09-15T06:39:15.574Z,12.90
2022-09-15T06:42:01.327Z,12.90
2022-09-15T06:44:29.489Z,12.91
2022-09-15T06:47:09.382Z,12.91
2022-09-15T06:49:36.426Z,12.78
2022-09-15T06:52:03.253Z,13.02
2022-09-15T06:54:30.108Z,13.18
2022-09-15T06:56:57.047Z,13.00
2022-09-15T06:59:23.954Z,13.01
2022-09-15T07:01:54.515Z,13.01
2022-09-15T07:04:22.277Z,13.03
2022-09-15T07:06:49.310Z,13.21
2022-09-15T07:09:16.204Z,13.53
2022-09-15T07:11:43.101Z,13.37
2022-09-15T07:14:12.451Z,13.66
2022-09-15T07:16:39.355Z,13.70
2022-09-15T07:19:34.289Z,13.92
2022-09-15T07:22:01.144Z,13.81
2022-09-15T07:24:27.930Z,13.82
2022-09-15T07:26:54.799Z,13.63
2022-09-15T07:29:21.603Z,13.67
2022-09-15T07:31:48.640Z,13.71
2022-09-15T07:34:15.492Z,13.66
2022-09-15T07:36:42.344Z,13.83
2022-09-15T07:39:10.182Z,14.01
2022-09-15T07:41:38.350Z,14.21
2022-09-15T07:44:07.330Z,14.11
2022-09-15T07:46:37.408Z,13.98
2022-09-15T07:49:04.469Z,13.93
2022-09-15T07:51:31.375Z,13.69
2022-09-15T07:53:58.389Z,13.92
2022-09-15T07:56:27.605Z,13.64
2022-09-15T07:58:54.388Z,13.77
2022-09-15T08:01:21.308Z,13.75
2022-09-15T08:03:51.200Z,13.97
2022-09-15T08:06:23.344Z,13.97
2022-09-15T08:08:50.721Z,14.03
2022-09-15T08:11:20.112Z,13.98
2022-09-15T08:13:48.581Z,14.15
2022-09-15T08:16:18.206Z,14.28
2022-09-15T08:18:45.570Z,14.14
2022-09-15T08:21:34.573Z,14.39
2022-09-15T08:24:01.601Z,14.34
2022-09-15T08:26:29.913Z,14.42
2022-09-15T08:28:57.356Z,14.44
2022-09-15T08:31:24.569Z,14.49
2022-09-15T08:33:54.101Z,14.54
2022-09-15T08:36:21.365Z,14.66
2022-09-15T08:38:48.241Z,14.70
2022-09-15T08:41:23.723Z,14.99
2022-09-15T08:44:07.617Z,15.16
2022-09-15T08:46:41.026Z,15.10
2022-09-15T08:49:35.560Z,15.05
2022-09-15T08:52:16.156Z,15.09
2022-09-15T08:54:57.103Z,14.86
2022-09-15T08:57:25.513Z,14.61
2022-09-15T08:59:53.785Z,14.71
2022-09-15T09:02:49.903Z,14.96
2022-09-15T09:05:47.655Z,15.01
2022-09-15T09:08:17.247Z,14.87
2022-09-15T09:11:04.288Z,14.88
2022-09-15T09:14:12.862Z,15.14
2022-09-15T09:16:39.654Z,14.96
2022-09-15T09:19:33.522Z,14.94
2022-09-15T09:22:09.449Z,14.72
2022-09-15T09:24:42.404Z,14.61
2022-09-15T09:27:36.908Z,14.89
2022-09-15T09:30:13.026Z,15.28
2022-09-15T09:33:17.312Z,15.32
2022-09-15T09:35:49.340Z,15.50
2022-09-15T09:38:26.173Z,15.30
2022-09-15T09:40:53.207Z,15.28
2022-09-15T09:43:20.531Z,15.22
2022-09-15T09:45:47.542Z,15.31
2022-09-15T09:48:23.826Z,15.30
2022-09-15T09:50:51.090Z,15.47
2022-09-15T09:53:44.236Z,15.38
2022-09-15T09:56:14.155Z,15.16
2022-09-15T09:58:40.972Z,15.15
2022-09-15T10:01:16.846Z,14.99
2022-09-15T10:03:44.211Z,14.60
2022-09-15T10:06:16.022Z,14.77
2022-09-15T10:08:56.454Z,14.77
2022-09-15T10:11:40.174Z,14.82
2022-09-15T10:14:07.086Z,14.97
2022-09-15T10:16:34.117Z,15.14
2022-09-15T10:19:01.531Z,15.45
2022-09-15T10:21:29.721Z,15.62
2022-09-15T10:23:56.588Z,15.68
2022-09-15T10:26:33.767Z,15.87
2022-09-15T10:29:18.520Z,16.00
2022-09-15T10:31:46.368Z,15.80
2022-09-15T10:34:26.835Z,16.11
2022-09-15T10:37:01.636Z,16.05
2022-09-15T10:39:44.088Z,16.10
2022-09-15T10:42:15.536Z,16.17
2022-09-15T10:45:07.048Z,16.19
2022-09-15T10:48:02.987Z,16.23
2022-09-15T10:50:54.120Z,15.93
2022-09-15T10:53:57.517Z,15.98
2022-09-15T10:56:36.964Z,15.72
2022-09-15T10:59:35.996Z,15.85
2022-09-15T11:02:24.455Z,16.01
2022-09-15T11:05:09.436Z,16.08
2022-09-15T11:07:42.000Z,15.98
2022-09-15T11:10:32.214Z,16.01
2022-09-15T11:13:04.681Z,15.77
2022-09-15T11:15:43.584Z,15.70
2022-09-15T11:18:33.171Z,15.57
2022-09-15T11:21:24.493Z,15.50
2022-09-15T11:24:07.567Z,15.79
2022-09-15T11:26:43.863Z,15.84
2022-09-15T11:29:33.748Z,15.93
2022-09-15T11:32:06.641Z,15.98
2022-09-15T11:34:41.244Z,15.92
2022-09-15T11:37:47.745Z,16.01
2022-09-15T11:40:42.002Z,16.07
2022-09-15T11:43:24.150Z,16.24
2022-09-15T11:45:58.161Z,16.34
2022-09-15T11:48:46.293Z,16.64
2022-09-15T11:51:19.928Z,16.54
2022-09-15T11:54:13.168Z,16.42
2022-09-15T11:56:55.470Z,16.49
2022-09-15T11:59:50.509Z,16.63
2022-09-15T12:02:24.772Z,16.40
2022-09-15T12:05:15.008Z,16.61
2022-09-15T12:08:04.539Z,16.51
2022-09-15T12:10:39.730Z,16.63
2022-09-15T12:13:11.305Z,16.52
2022-09-15T12:15:38.478Z,16.38
2022-09-15T12:18:34.522Z,16.43
2022-09-15T12:21:12.405Z,16.49
2022-09-15T12:23:45.653Z,16.54
2022-09-15T12:26:20.100Z,16.34
2022-09-15T12:28:46.898Z,16.28
2022-09-15T12:31:31.638Z,16.24
2022-09-15T12:34:18.110Z,16.15
2022-09-15T12:36:49.222Z,16.22
2022-09-15T12:39:36.638Z,16.34
2022-09-15T12:42:22.015Z,16.47
2022-09-15T12:45:02.047Z,16.31
2022-09-15T12:47:53.589Z,16.56
2022-09-15T12:50:20.432Z,16.54
2022-09-15T12:53:13.389Z,16.48
2022-09-15T12:55:50.713Z,16.60
2022-09-15T12:58:27.447Z,16.54
2022-09-15T13:01:23.307Z,16.67
2022-09-15T13:03:50.120Z,16.48
2022-09-15T13:06:16.839Z,16.40
2022-09-15T13:08:48.052Z,16.38
2022-09-15T13:11:27.126Z,16.42
2022-09-15T13:14:19.418Z,16.26
2022-09-15T13:17:04.362Z,16.18
2022-09-15T13:19:34.237Z,16.33
2022-09-15T13:22:16.106Z,16.29
2022-09-15T13:24:59.127Z,16.18
2022-09-15T13:27:33.300Z,16.14
2022-09-15T13:30:18.677Z,16.28
2022-09-15T13:32:49.972Z,16.26
2022-09-15T13:35:28.121Z,16.27
2022-09-15T13:38:26.271Z,16.36
2022-09-15T13:41:33.460Z,16.40
2022-09-15T13:44:15.168Z,16.20
2022-09-15T13:47:08.301Z,16.28
2022-09-15T13:49:45.644Z,16.21
2022-09-15T13:52:18.389Z,16.26
2022-09-15T13:55:16.361Z,16.34
2022-09-15T14:00:53.182Z,16.20
2022-09-15T14:03:42.497Z,15.97
2022-09-15T14:06:37.017Z,15.97
2022-09-15T14:09:16.631Z,15.97
2022-09-15T14:12:07.877Z,15.97
2022-09-15T14:14:42.680Z,15.74
2022-09-15T14:17:23.251Z,15.80
2022-09-15T14:19:53.553Z,15.56
2022-09-15T14:22:20.518Z,15.80
2022-09-15T14:24:50.887Z,15.68
2022-09-15T14:27:44.652Z,15.83
2022-09-15T14:30:37.910Z,15.84
2022-09-15T14:33:04.884Z,15.72
2022-09-15T14:35:37.493Z,15.80
2022-09-15T14:38:06.908Z,15.84
2022-09-15T14:40:38.858Z,15.85
2022-09-15T14:43:26.223Z,15.85
2022-09-15T14:46:05.781Z,15.80
2022-09-15T14:48:41.910Z,15.70
2022-09-15T14:51:17.356Z,15.72
2022-09-15T14:53:49.869Z,15.72
2022-09-15T14:56:22.860Z,15.61
2022-09-15T14:59:01.107Z,15.81
2022-09-15T15:01:52.477Z,15.91
2022-09-15T15:04:22.403Z,15.86
2022-09-15T15:07:13.850Z,15.91
2022-09-15T15:09:59.757Z,15.88
2022-09-15T15:12:37.309Z,15.90
2022-09-15T15:15:06.026Z,15.87
2022-09-15T15:17:53.189Z,15.93
2022-09-15T15:20:26.946Z,15.80
2022-09-15T15:23:14.784Z,15.93
2022-09-15T15:26:02.465Z,15.85
2022-09-15T15:28:36.391Z,15.85
2022-09-15T15:31:20.840Z,15.90
2022-09-15T15:33:53.928Z,15.82
2022-09-15T15:36:23.603Z,15.71
2022-09-15T15:38:56.248Z,15.79
2022-09-15T15:41:29.347Z,15.71
2022-09-15T15:44:01.105Z,15.75
2022-09-15T15:46:47.026Z,15.81
2022-09-15T15:49:14.160Z,15.68
2022-09-15T15:51:41.713Z,15.66
2022-09-15T15:54:08.875Z,15.64
2022-09-15T15:56:37.919Z,15.59
2022-09-15T15:59:05.509Z,15.54
2022-09-15T16:01:38.656Z,15.52
2022-09-15T16:04:05.503Z,15.47
2022-09-15T16:06:36.140Z,15.39
2022-09-15T16:09:04.250Z,15.30
2022-09-15T16:11:34.066Z,15.22
2022-09-15T16:14:01.017Z,15.05
2022-09-15T16:16:35.298Z,15.06
2022-09-15T16:19:02.293Z,14.94
2022-09-15T16:21:39.436Z,14.77
2022-09-15T16:24:12.760Z,14.70
2022-09-15T16:27:01.998Z,14.76
2022-09-15T16:29:29.380Z,14.60
2022-09-15T16:32:07.488Z,14.54
2022-09-15T16:34:54.940Z,14.42
2022-09-15T16:37:22.213Z,14.49
2022-09-15T16:39:49.110Z,14.50
2022-09-15T16:42:15.975Z,14.42
2022-09-15T16:44:42.857Z,14.43
2022-09-15T16:47:09.708Z,14.28
2022-09-15T16:49:36.602Z,14.32
2022-09-15T16:52:04.397Z,14.28
2022-09-15T16:54:31.331Z,14.30
2022-09-15T16:56:58.430Z,14.27
2022-09-15T16:59:25.301Z,14.21
2022-09-15T17:01:55.271Z,14.05
2022-09-15T17:04:22.286Z,14.15
2022-09-15T17:06:49.233Z,14.07
2022-09-15T17:09:15.968Z,14.04
2022-09-15T17:11:42.877Z,14.13
2022-09-15T17:14:15.086Z,14.21
2022-09-15T17:16:44.898Z,14.19
2022-09-15T17:19:11.662Z,14.17
2022-09-15T17:21:38.531Z,14.23
2022-09-15T17:24:05.729Z,14.27
2022-09-15T17:26:32.979Z,14.35
2022-09-15T17:28:59.846Z,14.32
2022-09-15T17:31:26.707Z,14.42
2022-09-15T17:33:53.880Z,14.48
2022-09-15T17:36:25.585Z,14.43
2022-09-15T17:38:53.773Z,14.51
2022-09-15T17:41:21.944Z,14.45
2022-09-15T17:43:49.214Z,14.29
2022-09-15T17:46:15.995Z,14.39
2022-09-15T17:48:46.530Z,14.39
2022-09-15T17:51:16.041Z,14.37
2022-09-15T17:53:48.975Z,14.31
2022-09-15T17:56:16.314Z,14.19
2022-09-15T17:58:43.347Z,14.03
2022-09-15T18:01:14.767Z,14.14
2022-09-15T18:03:44.271Z,14.07
2022-09-15T18:06:14.131Z,14.05
2022-09-15T18:08:41.402Z,13.98
2022-09-15T18:11:10.787Z,13.95
2022-09-15T18:13:46.335Z,13.87
2022-09-15T18:16:14.864Z,13.75
2022-09-15T18:18:47.567Z,13.77
2022-09-15T18:21:29.021Z,13.76
2022-09-15T18:23:56.935Z,13.65
2022-09-15T18:26:26.548Z,13.50
2022-09-15T18:29:01.069Z,13.55
2022-09-15T18:31:28.009Z,13.48
2022-09-15T18:33:55.190Z,13.42
2022-09-15T18:36:22.347Z,13.37
2022-09-15T18:38:49.181Z,13.36
2022-09-15T18:41:42.105Z,13.30
2022-09-15T18:44:09.011Z,13.24
2022-09-15T18:46:38.125Z,13.08
2022-09-15T18:49:05.391Z,12.97
2022-09-15T18:51:50.582Z,12.80
2022-09-15T18:54:18.401Z,12.80
2022-09-15T18:56:45.381Z,12.81
2022-09-15T18:59:15.485Z,12.61
2022-09-15T19:01:46.934Z,12.72
2022-09-15T19:04:13.878Z,12.62
2022-09-15T19:06:40.671Z,12.58
2022-09-15T19:09:07.503Z,12.34
2022-09-15T19:11:34.298Z,12.36
2022-09-15T19:14:01.091Z,12.39
2022-09-15T19:16:46.624Z,12.38
2022-09-15T19:19:14.895Z,12.42
2022-09-15T19:21:57.994Z,12.36
2022-09-15T19:24:25.139Z,12.34
2022-09-15T19:26:52.224Z,12.29
2022-09-15T19:29:19.321Z,12.28
2022-09-15T19:31:46.094Z,12.33
2022-09-15T19:34:12.956Z,12.38
2022-09-15T19:36:39.858Z,12.31
2022-09-15T19:39:06.734Z,12.26
2022-09-15T19:41:33.536Z,12.27
2022-09-15T19:44:01.564Z,12.24
2022-09-15T19:46:28.463Z,12.31
2022-09-15T19:48:55.578Z,12.23
2022-09-15T19:51:22.701Z,12.19
2022-09-15T19:53:52.825Z,12.34
2022-09-15T19:56:21.498Z,12.20
2022-09-15T19:59:06.625Z,12.19
2022-09-15T20:01:33.775Z,12.21
2022-09-15T20:04:00.569Z,12.18
2022-09-15T20:06:32.137Z,12.23
2022-09-15T20:08:59.483Z,12.21
2022-09-15T20:11:27.676Z,12.25
2022-09-15T20:13:54.859Z,12.20
2022-09-15T20:16:23.352Z,12.13
2022-09-15T20:18:52.483Z,12.06
2022-09-15T20:21:39.095Z,12.06
2022-09-15T20:24:10.410Z,12.16
2022-09-15T20:26:57.551Z,12.15
2022-09-15T20:29:24.499Z,12.22
2022-09-15T20:32:14.355Z,12.21
2022-09-15T20:34:41.377Z,12.24
2022-09-15T20:37:08.161Z,12.10
2022-09-15T20:39:35.009Z,12.13
2022-09-15T20:42:01.901Z,12.13
2022-09-15T20:44:28.719Z,12.22
2022-09-15T20:46:55.449Z,12.13
2022-09-15T20:49:22.342Z,12.13
2022-09-15T20:51:49.196Z,12.22
2022-09-15T20:54:16.049Z,12.23
2022-09-15T20:56:56.023Z,12.08
2022-09-15T20:59:22.985Z,12.12
2022-09-15T21:01:49.756Z,12.12
2022-09-15T21:04:16.830Z,12.12
2022-09-15T21:06:43.639Z,12.08
2022-09-15T21:09:10.655Z,11.92
2022-09-15T21:11:38.494Z,11.94
2022-09-15T21:14:10.537Z,11.85
2022-09-15T21:16:37.614Z,11.79
2022-09-15T21:19:04.973Z,11.79
2022-09-15T21:21:33.130Z,11.74
2022-09-15T21:24:05.871Z,11.76
2022-09-15T21:26:37.983Z,11.69
2022-09-15T21:29:04.796Z,11.79
2022-09-15T21:31:32.853Z,11.76
2022-09-15T21:33:59.842Z,11.75
2022-09-15T21:36:29.501Z,11.76
2022-09-15T21:38:58.422Z,11.79
2022-09-15T21:41:28.201Z,11.94
2022-09-15T21:44:01.106Z,11.96
2022-09-15T21:46:31.671Z,12.14
2022-09-15T21:49:00.204Z,12.06
2022-09-15T21:51:29.038Z,12.15
2022-09-15T21:53:58.071Z,12.18
2022-09-15T21:56:25.863Z,12.29
2022-09-15T21:58:52.727Z,12.30
2022-09-15T22:01:21.191Z,12.36
2022-09-15T22:03:56.372Z,12.39
2022-09-15T22:06:26.228Z,12.36
2022-09-15T22:09:00.041Z,12.37
2022-09-15T22:11:27.626Z,12.30
2022-09-15T22:13:54.591Z,12.38
2022-09-15T22:16:24.218Z,12.40
2022-09-15T22:18:51.703Z,12.38
2022-09-15T22:21:19.497Z,12.43
2022-09-15T22:23:47.774Z,12.36
2022-09-15T22:26:18.539Z,12.28
2022-09-15T22:28:46.162Z,12.38
2022-09-15T22:31:16.595Z,12.44
2022-09-15T22:33:44.374Z,12.38
2022-09-15T22:36:16.992Z,12.46
2022-09-15T22:38:44.106Z,12.45
2022-09-15T22:41:16.490Z,12.23
2022-09-15T22:43:45.058Z,12.23
2022-09-15T22:46:12.126Z,12.21
2022-09-15T22:48:43.267Z,12.09
2022-09-15T22:51:11.502Z,12.04
2022-09-15T22:53:38.445Z,12.05
2022-09-15T22:56:09.016Z,11.97
2022-09-15T22:58:37.508Z,11.98
2022-09-15T23:01:32.304Z,12.04
2022-09-15T23:04:01.982Z,11.97
2022-09-15T23:06:31.959Z,12.00
2022-09-15T23:09:01.410Z,12.03
2022-09-15T23:11:29.629Z,11.99
2022-09-15T23:13:56.595Z,12.08
2022-09-15T23:16:29.206Z,12.17
2022-09-15T23:18:56.299Z,11.88
2022-09-15T23:21:28.699Z,11.85
2022-09-15T23:23:56.034Z,11.78
2022-09-15T23:26:24.133Z,11.79
2022-09-15T23:28:51.878Z,11.82
2022-09-15T23:31:19.951Z,11.91
2022-09-15T23:33:47.575Z,11.82
2022-09-15T23:36:16.726Z,11.95
2022-09-15T23:38:45.009Z,11.96
2022-09-15T23:41:13.020Z,12.01
2022-09-15T23:43:40.118Z,11.94
2022-09-15T23:46:06.987Z,11.91
2022-09-15T23:48:34.013Z,11.73
2022-09-15T23:51:01.012Z,11.76
2022-09-15T23:53:28.898Z,11.76
2022-09-15T23:55:56.662Z,11.76
2022-09-15T23:58:23.953Z,11.56
